Time;durP1;ratioP1;P1;durP2;ratioP2;P2;SDS_P1;SDS_P2;PMS_P1;PMS_P2;Temp;Humidity;BMP_temperature;BMP_pressure;BME280_temperature;BME280_humidity;BME280_pressure;Samples;Min_cycle;Max_cycle;Signal;HPM_P1;HPM_P2
2023/06/12 00:00:51;;;;;;;4.63;3.83;;;29.80;34.40;;;;;;5071818;28;20431;-80
2023/06/12 00:03:19;;;;;;;6.60;4.23;;;29.80;34.60;;;;;;5069099;28;20444;-79
2023/06/12 00:05:50;;;;;;;4.53;4.10;;;29.80;34.70;;;;;;5071858;28;20476;-79
2023/06/12 00:08:18;;;;;;;4.17;3.87;;;29.70;34.50;;;;;;5072184;28;20496;-79
2023/06/12 00:10:46;;;;;;;3.70;3.50;;;29.70;34.60;;;;;;5072102;28;20480;-79
2023/06/12 00:13:15;;;;;;;4.20;3.63;;;29.70;34.60;;;;;;5071959;28;20548;-79
2023/06/12 00:15:43;;;;;;;4.20;3.90;;;29.70;34.70;;;;;;5072649;28;20495;-79
2023/06/12 00:18:12;;;;;;;4.73;4.37;;;29.70;34.70;;;;;;5072273;28;20438;-79
2023/06/12 00:20:40;;;;;;;4.10;3.80;;;29.60;34.80;;;;;;5068940;28;20453;-79
2023/06/12 00:23:10;;;;;;;6.93;4.10;;;29.60;34.80;;;;;;5071908;28;20546;-79
2023/06/12 00:25:43;;;;;;;4.20;3.90;;;29.60;34.80;;;;;;5072471;28;20464;-79
2023/06/12 00:28:13;;;;;;;5.70;3.93;;;29.60;34.90;;;;;;5070184;28;20446;-79
2023/06/12 00:30:41;;;;;;;4.73;4.30;;;29.50;34.90;;;;;;5071839;28;20465;-79
2023/06/12 00:33:09;;;;;;;4.77;4.27;;;29.50;34.90;;;;;;5072552;28;20519;-80
2023/06/12 00:35:37;;;;;;;6.87;4.20;;;29.50;34.90;;;;;;5071264;28;20502;-80
2023/06/12 00:38:06;;;;;;;4.50;4.10;;;29.50;34.90;;;;;;5071162;28;20474;-80
2023/06/12 00:40:35;;;;;;;5.73;4.17;;;29.50;35.10;;;;;;5073058;28;20537;-80
2023/06/12 00:43:05;;;;;;;3.90;3.60;;;29.50;35.00;;;;;;5075057;28;20977;-79
2023/06/12 00:45:33;;;;;;;4.40;4.10;;;29.40;35.00;;;;;;5075584;28;20476;-79
2023/06/12 00:48:01;;;;;;;4.20;3.80;;;29.40;35.00;;;;;;5076562;28;20445;-80
2023/06/12 00:50:30;;;;;;;4.20;3.80;;;29.30;35.10;;;;;;5078095;28;20503;-80
2023/06/12 00:52:58;;;;;;;6.33;4.40;;;29.30;35.10;;;;;;5074693;28;20471;-81
2023/06/12 00:55:28;;;;;;;5.13;4.10;;;29.30;35.10;;;;;;5075909;28;20464;-81
2023/06/12 00:57:58;;;;;;;4.73;4.27;;;29.30;35.20;;;;;;5082040;28;20412;-80
2023/06/12 01:00:27;;;;;;;4.50;4.10;;;29.20;35.20;;;;;;5078990;28;20438;-80
2023/06/12 01:02:55;;;;;;;4.90;4.37;;;29.20;35.30;;;;;;5078273;28;20473;-80
2023/06/12 01:05:32;;;;;;;4.40;4.10;;;29.20;35.30;;;;;;5078477;28;20450;-80
2023/06/12 01:08:18;;;;;;;6.03;4.17;;;29.20;35.20;;;;;;5078597;28;20503;-80
2023/06/12 01:10:52;;;;;;;4.70;3.63;;;29.20;35.30;;;;;;5076584;28;20969;-80
2023/06/12 01:13:22;;;;;;;4.20;3.50;;;29.10;35.40;;;;;;5071688;28;20456;-80
2023/06/12 01:15:50;;;;;;;6.90;3.87;;;29.10;35.40;;;;;;5078302;28;20495;-80
2023/06/12 01:18:20;;;;;;;10.70;5.40;;;29.10;35.50;;;;;;5081532;28;20456;-82
2023/06/12 01:20:49;;;;;;;5.07;4.57;;;28.50;34.80;;;;;;5083158;28;20472;-81
2023/06/12 01:23:25;;;;;;;9.23;5.00;;;27.90;36.20;;;;;;5081943;28;20477;-82
2023/06/12 01:26:18;;;;;;;6.17;4.40;;;27.40;38.70;;;;;;5081270;28;20445;-82
2023/06/12 01:29:11;;;;;;;10.87;5.90;;;26.90;38.80;;;;;;5081264;28;20458;-81
2023/06/12 01:31:45;;;;;;;13.50;5.30;;;25.50;41.40;;;;;;5046709;28;20533;-81
2023/06/12 01:34:16;;;;;;;9.00;5.03;;;25.10;42.00;;;;;;5072472;28;20447;-81
2023/06/12 01:37:05;;;;;;;8.23;5.57;;;24.40;44.40;;;;;;5081875;28;20449;-80
2023/06/12 01:39:35;;;;;;;10.20;5.40;;;24.20;44.90;;;;;;5077275;28;20488;-79
2023/06/12 01:42:04;;;;;;;7.50;5.23;;;23.90;45.70;;;;;;5077002;28;20505;-80
2023/06/12 01:44:33;;;;;;;18.87;10.97;;;23.70;45.40;;;;;;5077969;28;20421;-80
2023/06/12 01:47:01;;;;;;;21.63;10.70;;;23.20;46.60;;;;;;5078638;28;20420;-80
2023/06/12 01:49:31;;;;;;;22.67;15.17;;;22.90;47.40;;;;;;5078346;28;20428;-80
2023/06/12 01:51:59;;;;;;;28.13;16.93;;;22.90;47.90;;;;;;5077854;28;20419;-80
2023/06/12 01:54:28;;;;;;;26.23;12.57;;;22.90;47.70;;;;;;5079783;28;20482;-80
2023/06/12 01:56:57;;;;;;;16.00;11.27;;;22.80;48.90;;;;;;5081918;28;20441;-80
2023/06/12 01:59:25;;;;;;;14.03;8.90;;;22.90;48.30;;;;;;5081423;28;21020;-80
2023/06/12 02:01:53;;;;;;;18.13;8.97;;;23.00;48.10;;;;;;5080713;28;21017;-83
2023/06/12 02:04:22;;;;;;;14.27;8.50;;;22.80;48.20;;;;;;5076893;28;20477;-80
2023/06/12 02:06:51;;;;;;;15.70;10.70;;;22.80;48.60;;;;;;5080713;28;20445;-82
2023/06/12 02:09:20;;;;;;;14.87;9.90;;;22.90;49.00;;;;;;5077204;28;20453;-80
2023/06/12 02:11:49;;;;;;;15.40;8.60;;;23.00;48.60;;;;;;5077087;28;20526;-80
2023/06/12 02:14:17;;;;;;;12.07;7.80;;;22.90;48.70;;;;;;5069525;28;20416;-81
2023/06/12 02:16:45;;;;;;;16.13;8.67;;;22.80;48.60;;;;;;5077603;28;20439;-80
2023/06/12 02:19:14;;;;;;;11.53;6.37;;;22.90;49.00;;;;;;5077560;28;20420;-80
2023/06/12 02:21:42;;;;;;;13.83;6.20;;;22.90;49.50;;;;;;5071404;28;20803;-80
2023/06/12 02:24:11;;;;;;;11.90;5.87;;;22.90;49.20;;;;;;5077605;28;20519;-80
2023/06/12 02:26:40;;;;;;;14.60;5.07;;;22.70;49.20;;;;;;5077120;28;20430;-80
2023/06/12 02:29:08;;;;;;;8.93;5.23;;;22.70;49.50;;;;;;5076912;28;20417;-80
2023/06/12 02:31:36;;;;;;;9.03;5.30;;;22.70;49.50;;;;;;5076403;28;20499;-79
2023/06/12 02:34:04;;;;;;;15.07;9.27;;;22.70;49.50;;;;;;5076212;28;20548;-79
2023/06/12 02:36:40;;;;;;;18.53;10.37;;;22.50;49.50;;;;;;5076420;28;20441;-80
2023/06/12 02:39:12;;;;;;;19.30;7.60;;;22.50;49.80;;;;;;5071075;28;20457;-80
2023/06/12 02:41:41;;;;;;;20.80;7.00;;;22.60;49.70;;;;;;5080222;28;20413;-80
2023/06/12 02:44:09;;;;;;;13.40;6.00;;;22.50;49.80;;;;;;5074729;28;20469;-79
2023/06/12 02:46:54;;;;;;;14.37;6.07;;;22.50;50.40;;;;;;5077596;28;20977;-79
2023/06/12 02:49:26;;;;;;;14.70;6.77;;;22.40;50.50;;;;;;5071756;28;20458;-79
2023/06/12 02:51:54;;;;;;;17.20;6.50;;;22.10;50.70;;;;;;5077749;28;20446;-80
2023/06/12 02:54:25;;;;;;;9.93;5.00;;;22.10;51.50;;;;;;5077146;28;20460;-80
2023/06/12 02:56:53;;;;;;;14.40;5.20;;;22.10;50.70;;;;;;5076190;28;20481;-80
2023/06/12 02:59:22;;;;;;;12.73;5.60;;;22.10;51.30;;;;;;5076572;28;20442;-80
2023/06/12 03:01:51;;;;;;;7.57;5.20;;;22.10;51.40;;;;;;5073714;28;20477;-80
2023/06/12 03:04:23;;;;;;;10.53;5.70;;;22.10;51.50;;;;;;5071168;28;20564;-81
2023/06/12 03:06:53;;;;;;;8.70;4.93;;;22.00;51.10;;;;;;5075936;28;20438;-81
2023/06/12 03:09:21;;;;;;;5.43;4.90;;;22.10;51.70;;;;;;5069743;28;20473;-80
2023/06/12 03:11:52;;;;;;;9.73;5.97;;;22.00;51.90;;;;;;5080039;28;20512;-81
2023/06/12 03:14:21;;;;;;;11.60;5.60;;;22.00;51.10;;;;;;5079988;28;20441;-81
2023/06/12 03:16:49;;;;;;;7.57;4.93;;;21.70;52.50;;;;;;5080435;28;20437;-81
2023/06/12 03:19:17;;;;;;;9.17;5.40;;;21.90;52.40;;;;;;5075045;28;20447;-79
2023/06/12 03:21:45;;;;;;;6.43;5.13;;;21.60;52.40;;;;;;5076551;28;20471;-80
2023/06/12 03:24:14;;;;;;;8.83;4.87;;;21.50;53.20;;;;;;5075255;28;21063;-80
2023/06/12 03:26:42;;;;;;;14.40;5.70;;;21.50;53.10;;;;;;5075532;28;20434;-79
2023/06/12 03:29:12;;;;;;;15.27;5.23;;;21.60;52.70;;;;;;5075067;28;20449;-80
2023/06/12 03:31:40;;;;;;;9.10;5.07;;;21.60;53.70;;;;;;5075047;28;20452;-79
2023/06/12 03:34:09;;;;;;;14.73;5.70;;;21.80;53.00;;;;;;5075104;28;20457;-79
2023/06/12 03:36:38;;;;;;;9.97;5.50;;;21.80;52.90;;;;;;5072292;28;20454;-79
2023/06/12 03:39:09;;;;;;;9.13;4.87;;;21.80;53.00;;;;;;5067973;28;20504;-79
2023/06/12 03:41:38;;;;;;;6.30;4.70;;;21.90;52.70;;;;;;5071573;28;20438;-79
2023/06/12 03:44:06;;;;;;;9.10;5.20;;;21.90;52.60;;;;;;5073998;28;20513;-79
2023/06/12 03:46:36;;;;;;;14.80;5.10;;;21.90;52.90;;;;;;5074406;28;20441;-79
2023/06/12 03:49:04;;;;;;;9.17;4.93;;;22.00;52.40;;;;;;5073508;28;20463;-79
2023/06/12 03:51:35;;;;;;;12.13;5.60;;;22.10;52.50;;;;;;5074143;28;20441;-79
2023/06/12 03:54:05;;;;;;;8.87;5.10;;;22.00;52.10;;;;;;5073464;28;20458;-78
2023/06/12 03:56:33;;;;;;;18.30;6.03;;;22.00;52.60;;;;;;5072977;28;20453;-80
2023/06/12 03:59:01;;;;;;;9.23;5.80;;;22.00;52.70;;;;;;5079017;28;20445;-80
2023/06/12 04:01:29;;;;;;;9.60;5.43;;;22.00;52.80;;;;;;5080548;28;20429;-81
2023/06/12 04:03:58;;;;;;;9.77;5.37;;;22.00;53.00;;;;;;5080746;28;20448;-80
2023/06/12 04:06:29;;;;;;;7.37;5.07;;;22.00;52.90;;;;;;5080169;28;20450;-81
2023/06/12 04:09:01;;;;;;;11.50;5.27;;;22.10;52.60;;;;;;5079357;28;20500;-80
2023/06/12 04:11:29;;;;;;;14.00;8.97;;;22.00;52.90;;;;;;5078523;28;20439;-80
2023/06/12 04:13:57;;;;;;;23.53;14.70;;;22.20;53.00;;;;;;5075321;28;20448;-82
2023/06/12 04:16:25;;;;;;;9.53;6.67;;;22.20;53.00;;;;;;5076641;28;20449;-78
2023/06/12 04:18:56;;;;;;;11.73;6.50;;;22.20;52.60;;;;;;5079593;28;20529;-79
2023/06/12 04:21:26;;;;;;;12.53;5.93;;;22.20;52.60;;;;;;5077706;28;20421;-79
2023/06/12 04:23:54;;;;;;;9.57;6.20;;;22.30;52.80;;;;;;5080381;28;20440;-81
2023/06/12 04:26:24;;;;;;;11.03;6.27;;;22.30;52.40;;;;;;5075486;28;20420;-80
2023/06/12 04:28:53;;;;;;;10.20;5.70;;;22.30;52.90;;;;;;5082381;28;20445;-80
2023/06/12 04:31:21;;;;;;;10.90;6.33;;;22.40;52.80;;;;;;5083508;28;20416;-79
2023/06/12 04:33:51;;;;;;;11.10;5.70;;;22.30;52.70;;;;;;5083667;28;20472;-81
2023/06/12 04:36:21;;;;;;;8.30;6.70;;;22.20;52.80;;;;;;5083377;28;20450;-81
2023/06/12 04:38:51;;;;;;;12.10;6.60;;;22.30;52.90;;;;;;5083110;28;20499;-82
2023/06/12 04:41:20;;;;;;;8.40;6.07;;;22.30;52.70;;;;;;5080758;28;20449;-80
2023/06/12 04:43:49;;;;;;;8.10;5.70;;;22.40;52.80;;;;;;5081880;28;20546;-81
2023/06/12 04:46:17;;;;;;;10.40;5.57;;;22.30;52.20;;;;;;5082688;28;20420;-81
2023/06/12 04:48:45;;;;;;;11.20;5.93;;;22.30;52.40;;;;;;5081881;28;20416;-81
2023/06/12 04:51:14;;;;;;;8.43;5.70;;;22.30;52.70;;;;;;5082043;28;20465;-80
2023/06/12 04:53:43;;;;;;;8.57;6.37;;;22.40;52.60;;;;;;5081235;28;20481;-80
2023/06/12 04:56:20;;;;;;;10.10;5.90;;;22.50;52.80;;;;;;5079273;28;20428;-80
2023/06/12 04:58:49;;;;;;;16.40;6.47;;;22.60;52.50;;;;;;5082601;28;20463;-81
2023/06/12 05:01:19;;;;;;;7.97;6.00;;;22.50;52.40;;;;;;5082957;28;20459;-80
2023/06/12 05:03:49;;;;;;;9.33;6.77;;;22.50;52.80;;;;;;5082529;28;20469;-80
2023/06/12 05:06:17;;;;;;;13.00;8.20;;;22.50;52.60;;;;;;5083398;28;20445;-81
2023/06/12 05:08:45;;;;;;;9.63;7.20;;;22.50;52.50;;;;;;5081923;28;20480;-81
2023/06/12 05:11:15;;;;;;;10.90;6.50;;;22.60;52.40;;;;;;5082900;28;20441;-81
2023/06/12 05:13:45;;;;;;;6.77;6.07;;;22.60;51.90;;;;;;5079580;28;20548;-81
2023/06/12 05:16:13;;;;;;;14.20;9.07;;;22.60;51.50;;;;;;5082066;28;20437;-81
2023/06/12 05:18:41;;;;;;;25.37;8.30;;;22.80;52.00;;;;;;5081917;28;20437;-80
2023/06/12 05:21:10;;;;;;;17.07;9.40;;;22.80;51.70;;;;;;5080405;28;20496;-80
2023/06/12 05:23:39;;;;;;;8.93;6.60;;;22.70;51.90;;;;;;5072947;28;20493;-79
2023/06/12 05:26:07;;;;;;;11.80;7.87;;;22.70;51.60;;;;;;5076708;28;20426;-79
2023/06/12 05:28:37;;;;;;;17.20;8.73;;;22.80;51.50;;;;;;5072665;28;20446;-80
2023/06/12 05:31:05;;;;;;;17.07;7.50;;;22.80;51.80;;;;;;5075463;28;20468;-79
2023/06/12 05:33:35;;;;;;;10.37;6.47;;;22.90;51.60;;;;;;5078786;28;20416;-81
2023/06/12 05:36:04;;;;;;;9.50;6.47;;;22.80;52.00;;;;;;5078999;28;20423;-80
2023/06/12 05:38:32;;;;;;;22.20;10.40;;;22.90;51.10;;;;;;5079626;28;20438;-80
2023/06/12 05:41:00;;;;;;;13.23;7.83;;;23.00;50.70;;;;;;5078813;28;20438;-80
2023/06/12 05:43:29;;;;;;;14.83;6.73;;;23.00;51.30;;;;;;5080567;28;20472;-80
2023/06/12 05:45:59;;;;;;;11.07;6.90;;;23.10;51.30;;;;;;5076271;28;20495;-81
2023/06/12 05:48:27;;;;;;;17.23;10.40;;;23.10;51.10;;;;;;5078280;28;20458;-81
2023/06/12 05:50:55;;;;;;;12.90;8.67;;;23.30;50.30;;;;;;5080085;28;20420;-79
2023/06/12 05:53:23;;;;;;;10.60;7.90;;;23.40;50.70;;;;;;5081593;28;20489;-81
2023/06/12 05:55:52;;;;;;;12.53;6.33;;;23.50;50.90;;;;;;5077436;28;20423;-80
2023/06/12 05:58:21;;;;;;;15.30;8.33;;;23.50;50.40;;;;;;5079705;28;20435;-79
2023/06/12 06:00:49;;;;;;;15.80;8.50;;;23.40;50.70;;;;;;5074537;28;20448;-81
2023/06/12 06:03:20;;;;;;;8.40;6.80;;;23.50;50.80;;;;;;5076304;28;20466;-80
2023/06/12 06:05:48;;;;;;;10.97;6.60;;;23.70;50.90;;;;;;5071345;28;20472;-80
2023/06/12 06:08:16;;;;;;;15.30;8.73;;;23.80;50.10;;;;;;5076911;28;20421;-80
2023/06/12 06:10:44;;;;;;;13.10;7.00;;;23.70;50.30;;;;;;5076553;28;20468;-80
2023/06/12 06:13:13;;;;;;;10.33;7.20;;;23.90;50.50;;;;;;5077255;28;20522;-80
2023/06/12 06:15:41;;;;;;;15.37;10.03;;;23.90;50.40;;;;;;5077392;28;20467;-80
2023/06/12 06:18:09;;;;;;;13.43;7.83;;;23.80;50.70;;;;;;5077102;28;20473;-79
2023/06/12 06:20:39;;;;;;;12.30;7.73;;;24.00;50.70;;;;;;5074988;28;20433;-79
2023/06/12 06:23:07;;;;;;;17.20;10.00;;;24.10;50.80;;;;;;5077815;28;20444;-80
2023/06/12 06:25:35;;;;;;;8.40;7.27;;;24.20;50.40;;;;;;5078717;28;20525;-81
2023/06/12 06:28:03;;;;;;;21.50;10.00;;;24.00;51.00;;;;;;5078785;28;20468;-80
2023/06/12 06:30:31;;;;;;;17.40;10.03;;;23.90;51.10;;;;;;5070752;28;20442;-79
2023/06/12 06:32:59;;;;;;;14.00;8.80;;;24.00;51.90;;;;;;5078962;28;20432;-80
2023/06/12 06:35:27;;;;;;;13.67;8.10;;;24.30;51.60;;;;;;5079282;28;20401;-79
2023/06/12 06:37:57;;;;;;;11.43;7.87;;;24.50;50.90;;;;;;5070602;28;20504;-81
2023/06/12 06:40:25;;;;;;;16.50;8.80;;;24.80;50.60;;;;;;5077062;28;20433;-79
2023/06/12 06:42:54;;;;;;;9.43;8.43;;;24.80;50.00;;;;;;5078498;28;20433;-80
2023/06/12 06:45:22;;;;;;;18.13;12.07;;;25.00;50.10;;;;;;5077833;28;20523;-79
2023/06/12 06:47:50;;;;;;;9.93;7.20;;;25.10;49.60;;;;;;5078550;28;20484;-78
2023/06/12 06:50:19;;;;;;;12.87;9.40;;;25.20;50.20;;;;;;5078109;28;20526;-78
2023/06/12 06:52:47;;;;;;;16.67;10.67;;;25.50;49.00;;;;;;5078416;28;20489;-79
2023/06/12 06:55:17;;;;;;;16.27;9.60;;;25.50;48.90;;;;;;5074091;28;20425;-79
2023/06/12 06:57:45;;;;;;;23.13;10.33;;;25.60;48.70;;;;;;5076225;28;20413;-79
2023/06/12 07:00:14;;;;;;;13.87;9.50;;;25.20;49.00;;;;;;5075644;28;20420;-79
2023/06/12 07:02:43;;;;;;;16.57;10.00;;;25.20;50.20;;;;;;5072527;28;20523;-79
2023/06/12 07:05:11;;;;;;;11.30;7.90;;;25.40;50.00;;;;;;5075147;28;20440;-80
2023/06/12 07:07:40;;;;;;;13.63;9.40;;;25.70;49.40;;;;;;5078618;28;20419;-79
2023/06/12 07:10:29;;;;;;;15.47;9.23;;;25.70;49.40;;;;;;5076424;28;20423;-82
2023/06/12 07:12:57;;;;;;;10.03;8.27;;;25.90;48.50;;;;;;5069399;28;20467;-79
2023/06/12 07:15:26;;;;;;;29.17;13.00;;;26.10;48.60;;;;;;5068033;28;20509;-78
2023/06/12 07:17:53;;;;;;;32.83;20.43;;;26.20;48.20;;;;;;5068648;28;20450;-80
2023/06/12 07:20:22;;;;;;;25.03;17.53;;;26.40;48.30;;;;;;5065603;28;20438;-80
2023/06/12 07:22:50;;;;;;;24.63;14.87;;;26.60;47.70;;;;;;5070063;28;20479;-82
2023/06/12 07:25:18;;;;;;;26.50;18.33;;;26.60;47.10;;;;;;5068300;28;20436;-84
2023/06/12 07:27:47;;;;;;;14.63;10.70;;;26.60;47.40;;;;;;5064389;28;20513;-83
2023/06/12 07:30:15;;;;;;;22.10;11.03;;;26.70;47.00;;;;;;5068812;28;20492;-80
2023/06/12 07:32:44;;;;;;;18.40;9.10;;;26.60;47.20;;;;;;5070915;28;20466;-80
2023/06/12 07:35:12;;;;;;;15.90;8.80;;;26.60;46.50;;;;;;5079242;28;20920;-80
2023/06/12 07:37:43;;;;;;;17.30;9.37;;;26.60;47.40;;;;;;5074788;28;20444;-80
2023/06/12 07:40:12;;;;;;;13.57;8.90;;;26.70;47.30;;;;;;5073904;28;20441;-81
2023/06/12 07:42:42;;;;;;;11.20;8.20;;;27.00;47.00;;;;;;5072453;28;20564;-80
2023/06/12 07:45:12;;;;;;;12.00;8.03;;;27.20;46.60;;;;;;5065817;28;20471;-80
2023/06/12 07:47:40;;;;;;;18.60;11.93;;;27.30;46.00;;;;;;5078626;28;20448;-79
2023/06/12 07:50:10;;;;;;;19.20;13.30;;;27.40;46.00;;;;;;5078087;28;20424;-79
2023/06/12 07:52:38;;;;;;;12.73;10.07;;;27.60;45.80;;;;;;5068957;28;20454;-79
2023/06/12 07:55:08;;;;;;;14.97;9.57;;;27.70;45.50;;;;;;5076145;28;20439;-80
2023/06/12 07:57:36;;;;;;;127.67;15.93;;;27.80;45.40;;;;;;5073149;28;20450;-83
2023/06/12 08:00:07;;;;;;;94.40;15.97;;;27.90;45.50;;;;;;5073333;28;20451;-81
2023/06/12 08:02:38;;;;;;;106.37;15.90;;;28.10;45.70;;;;;;5075413;28;20528;-80
2023/06/12 08:05:08;;;;;;;85.37;15.30;;;28.40;45.20;;;;;;5077823;28;20438;-81
2023/06/12 08:07:36;;;;;;;92.27;16.07;;;28.60;44.70;;;;;;5070019;28;20460;-79
2023/06/12 08:10:07;;;;;;;74.47;14.10;;;28.80;44.30;;;;;;5069012;28;20412;-80
2023/06/12 08:12:35;;;;;;;64.23;13.70;;;28.90;44.00;;;;;;5069917;28;20457;-80
2023/06/12 08:15:04;;;;;;;75.43;13.43;;;29.00;43.80;;;;;;5074597;28;20459;-79
2023/06/12 08:17:32;;;;;;;85.00;14.10;;;29.10;43.50;;;;;;5076475;28;20443;-80
2023/06/12 08:20:05;;;;;;;80.77;13.97;;;29.30;43.40;;;;;;5075901;28;20451;-80
2023/06/12 08:22:33;;;;;;;70.53;13.30;;;29.30;43.10;;;;;;5075207;28;20466;-80
2023/06/12 08:25:02;;;;;;;44.53;12.80;;;29.50;43.10;;;;;;5076059;28;20415;-80
2023/06/12 08:27:30;;;;;;;61.40;12.53;;;29.60;42.90;;;;;;5075421;28;20504;-79
2023/06/12 08:29:58;;;;;;;58.27;12.70;;;29.60;42.70;;;;;;5078493;28;20442;-82
2023/06/12 08:32:26;;;;;;;47.90;12.50;;;29.70;42.50;;;;;;5076605;28;20443;-80
2023/06/12 08:34:55;;;;;;;38.13;11.67;;;29.80;42.40;;;;;;5076162;28;20453;-79
2023/06/12 08:37:24;;;;;;;59.23;12.30;;;29.90;42.30;;;;;;5073165;28;20506;-80
2023/06/12 08:39:52;;;;;;;54.07;12.40;;;30.00;42.10;;;;;;5073568;28;20449;-79
2023/06/12 08:42:24;;;;;;;41.87;11.40;;;30.00;41.90;;;;;;5076641;28;20461;-80
2023/06/12 08:44:52;;;;;;;42.80;11.07;;;30.10;41.80;;;;;;5075539;28;20499;-79
2023/06/12 08:47:33;;;;;;;48.60;11.23;;;30.20;41.60;;;;;;5073698;28;20448;-80
2023/06/12 08:50:02;;;;;;;39.10;10.83;;;30.30;41.50;;;;;;5076814;28;20453;-79
2023/06/12 08:52:31;;;;;;;38.73;10.37;;;30.40;41.40;;;;;;5075993;28;20488;-81
2023/06/12 08:55:00;;;;;;;31.17;9.90;;;30.50;41.30;;;;;;5062592;28;20528;-80
2023/06/12 08:57:28;;;;;;;33.40;9.60;;;30.60;41.20;;;;;;5074217;28;20442;-80
2023/06/12 08:59:56;;;;;;;34.30;9.60;;;30.60;41.10;;;;;;5075338;28;20442;-80
2023/06/12 09:02:24;;;;;;;31.50;10.03;;;30.70;40.90;;;;;;5077885;28;20472;-80
2023/06/12 09:05:01;;;;;;;33.60;10.20;;;30.80;40.80;;;;;;5081644;28;20537;-81
2023/06/12 09:07:31;;;;;;;34.00;8.93;;;30.90;40.70;;;;;;5083114;28;20469;-81
2023/06/12 09:09:59;;;;;;;31.40;10.13;;;31.00;40.60;;;;;;5074870;28;20473;-81
2023/06/12 09:12:43;;;;;;;31.43;9.00;;;31.10;40.40;;;;;;5071359;28;20523;-79
2023/06/12 09:15:18;;;;;;;24.10;8.50;;;31.10;40.40;;;;;;5077451;28;20506;-79
2023/06/12 09:17:50;;;;;;;27.70;9.80;;;31.20;40.20;;;;;;5074155;28;20462;-81
2023/06/12 09:20:23;;;;;;;30.53;8.93;;;31.40;40.20;;;;;;5080415;28;20517;-80
2023/06/12 09:23:10;;;;;;;23.60;8.73;;;31.40;40.10;;;;;;5077601;28;20544;-81
2023/06/12 09:25:39;;;;;;;22.33;8.70;;;31.50;40.00;;;;;;5077114;28;20438;-80
2023/06/12 09:28:13;;;;;;;25.70;8.90;;;31.60;39.90;;;;;;5076240;28;20504;-80
2023/06/12 09:30:41;;;;;;;26.77;8.60;;;31.70;39.80;;;;;;5076887;28;20481;-80
2023/06/12 09:33:10;;;;;;;28.00;8.67;;;31.80;39.80;;;;;;5081005;28;20951;-80
2023/06/12 09:35:51;;;;;;;23.57;7.80;;;31.80;39.50;;;;;;5083751;28;20510;-81
2023/06/12 09:38:28;;;;;;;22.17;8.70;;;31.90;39.40;;;;;;5078761;28;20477;-81
2023/06/12 09:40:57;;;;;;;19.90;7.63;;;32.00;39.50;;;;;;5080169;28;20433;-81
2023/06/12 09:43:26;;;;;;;13.87;8.10;;;32.10;39.40;;;;;;5082338;28;20450;-81
2023/06/12 09:45:54;;;;;;;20.80;7.70;;;32.20;39.20;;;;;;5080092;28;20448;-78
2023/06/12 09:48:22;;;;;;;16.53;7.80;;;32.30;39.20;;;;;;5075341;28;20454;-80
2023/06/12 09:50:53;;;;;;;15.17;7.50;;;32.40;39.00;;;;;;5081719;28;20441;-80
2023/06/12 09:53:23;;;;;;;15.40;7.23;;;32.50;39.00;;;;;;5081907;28;20457;-80
2023/06/12 09:55:51;;;;;;;17.83;7.53;;;32.50;38.70;;;;;;5073244;28;20515;-80
2023/06/12 09:58:19;;;;;;;13.17;6.83;;;32.60;38.80;;;;;;5081962;28;20487;-80
2023/06/12 10:00:48;;;;;;;15.00;7.60;;;32.70;38.70;;;;;;5079064;28;20515;-81
2023/06/12 10:03:16;;;;;;;13.10;6.93;;;32.80;38.60;;;;;;5077049;28;20465;-78
2023/06/12 10:05:48;;;;;;;10.93;6.90;;;32.80;38.40;;;;;;5067502;28;20528;-81
2023/06/12 10:08:17;;;;;;;19.27;7.00;;;32.90;38.30;;;;;;5073215;28;20525;-82
2023/06/12 10:10:48;;;;;;;12.50;6.80;;;33.00;38.30;;;;;;5068963;28;20449;-81
2023/06/12 10:13:16;;;;;;;11.93;6.73;;;33.10;38.10;;;;;;5081480;28;20465;-80
2023/06/12 10:15:44;;;;;;;12.83;7.20;;;33.20;38.00;;;;;;5076793;28;20499;-81
2023/06/12 10:18:12;;;;;;;12.97;6.97;;;33.30;37.90;;;;;;5077272;28;20449;-78
2023/06/12 10:20:41;;;;;;;9.57;6.23;;;33.40;37.90;;;;;;5074404;28;20450;-80
2023/06/12 10:23:09;;;;;;;13.47;6.43;;;33.40;37.70;;;;;;5074679;28;20461;-80
2023/06/12 10:25:37;;;;;;;17.30;6.83;;;33.50;37.60;;;;;;5074214;28;20480;-78
2023/06/12 10:28:07;;;;;;;13.60;6.80;;;33.60;37.60;;;;;;5075195;28;20473;-79
2023/06/12 10:30:35;;;;;;;10.97;6.10;;;33.70;37.50;;;;;;5064196;28;20446;-80
2023/06/12 10:33:13;;;;;;;12.93;6.10;;;33.80;37.40;;;;;;5072824;28;20496;-81
2023/06/12 10:35:42;;;;;;;10.57;6.70;;;33.80;37.40;;;;;;5075050;28;20495;-80
2023/06/12 10:38:11;;;;;;;14.30;6.60;;;33.80;37.00;;;;;;5074454;28;20469;-80
2023/06/12 10:40:40;;;;;;;6.70;5.60;;;33.80;37.10;;;;;;5071396;28;20548;-81
2023/06/12 10:43:22;;;;;;;8.17;5.87;;;33.80;37.30;;;;;;5074469;28;20984;-80
2023/06/12 10:45:56;;;;;;;9.37;5.90;;;33.90;37.20;;;;;;5067102;28;20445;-80
2023/06/12 10:48:24;;;;;;;9.17;5.90;;;34.00;37.00;;;;;;5073173;28;20488;-80
2023/06/12 10:50:56;;;;;;;14.30;5.90;;;34.00;37.00;;;;;;5074124;28;20450;-79
2023/06/12 10:53:25;;;;;;;10.03;6.37;;;34.10;36.90;;;;;;5074182;28;20492;-80
2023/06/12 10:55:57;;;;;;;6.53;5.90;;;34.20;36.80;;;;;;5067791;28;20549;-81
2023/06/12 10:58:26;;;;;;;8.97;6.20;;;34.30;36.60;;;;;;5074410;28;20449;-81
2023/06/12 11:00:55;;;;;;;9.83;5.60;;;34.40;36.60;;;;;;5074789;28;20445;-81
2023/06/12 11:03:25;;;;;;;7.93;5.87;;;34.50;36.40;;;;;;5073838;28;20842;-81
2023/06/12 11:05:55;;;;;;;7.50;5.10;;;34.60;36.30;;;;;;5074122;28;20437;-80
2023/06/12 11:08:24;;;;;;;7.50;6.30;;;34.60;36.20;;;;;;5072797;28;20546;-81
2023/06/12 11:10:52;;;;;;;6.23;5.57;;;34.70;36.20;;;;;;5072162;28;20512;-80
2023/06/12 11:13:22;;;;;;;6.83;5.67;;;34.70;36.00;;;;;;5064681;28;20523;-80
2023/06/12 11:15:52;;;;;;;5.83;5.30;;;34.90;36.00;;;;;;5073199;28;20441;-81
2023/06/12 11:18:21;;;;;;;7.07;5.40;;;34.90;35.90;;;;;;5072572;28;20468;-79
2023/06/12 11:20:52;;;;;;;6.23;5.10;;;35.00;35.80;;;;;;5066570;28;20481;-81
2023/06/12 11:23:22;;;;;;;8.60;5.73;;;35.00;35.40;;;;;;5071653;28;20526;-81
2023/06/12 11:25:50;;;;;;;5.67;5.17;;;35.10;35.50;;;;;;5072771;28;20515;-79
2023/06/12 11:28:19;;;;;;;10.10;5.53;;;35.20;35.60;;;;;;5065501;28;20568;-82
2023/06/12 11:30:48;;;;;;;11.23;5.63;;;35.20;35.40;;;;;;5072801;28;20445;-77
2023/06/12 11:33:37;;;;;;;5.77;5.20;;;35.30;35.40;;;;;;5071921;28;20450;-78
2023/06/12 11:36:05;;;;;;;6.13;5.50;;;35.40;35.40;;;;;;5068971;28;20437;-78
2023/06/12 11:38:33;;;;;;;10.37;5.20;;;35.40;35.20;;;;;;5069066;28;20438;-76
2023/06/12 11:41:04;;;;;;;7.70;5.90;;;35.50;35.20;;;;;;5069039;28;20473;-76
2023/06/12 11:43:32;;;;;;;8.20;5.50;;;35.60;35.30;;;;;;5072349;28;20464;-80
2023/06/12 11:46:02;;;;;;;9.67;5.63;;;35.60;35.10;;;;;;5077538;28;20488;-83
2023/06/12 11:48:31;;;;;;;8.40;5.60;;;35.70;35.00;;;;;;5081452;28;20473;-83
2023/06/12 11:51:04;;;;;;;11.37;5.77;;;35.80;35.10;;;;;;5081334;28;20446;-83
2023/06/12 11:53:32;;;;;;;7.77;5.30;;;35.80;35.00;;;;;;5071415;28;20490;-83
2023/06/12 11:56:04;;;;;;;8.23;4.87;;;35.80;34.90;;;;;;5075429;28;20432;-86
2023/06/12 11:58:35;;;;;;;5.37;4.87;;;35.90;34.80;;;;;;5074989;28;20515;-83
2023/06/12 12:01:11;;;;;;;6.23;4.80;;;35.90;34.80;;;;;;5076226;28;20499;-83
2023/06/12 12:03:44;;;;;;;5.80;5.30;;;36.00;34.70;;;;;;5077842;28;20461;-83
2023/06/12 12:06:15;;;;;;;8.37;5.20;;;36.00;34.60;;;;;;5074460;28;20992;-82
2023/06/12 12:08:43;;;;;;;7.83;5.13;;;36.10;34.30;;;;;;5071001;28;20470;-81
2023/06/12 12:11:18;;;;;;;5.40;4.80;;;36.10;34.30;;;;;;5062266;28;20443;-81
2023/06/12 12:13:51;;;;;;;5.37;4.87;;;36.20;34.30;;;;;;5072397;28;20509;-80
2023/06/12 12:16:25;;;;;;;8.63;4.97;;;36.10;34.00;;;;;;5075603;28;20473;-81
2023/06/12 12:18:53;;;;;;;7.17;5.40;;;36.00;34.00;;;;;;5073532;28;20433;-80
2023/06/12 12:21:24;;;;;;;5.67;5.17;;;36.10;34.00;;;;;;5074090;28;20495;-81
2023/06/12 12:23:53;;;;;;;6.90;4.87;;;36.10;33.90;;;;;;5062744;28;20478;-82
2023/06/12 12:26:22;;;;;;;7.20;4.50;;;36.00;33.90;;;;;;5071540;28;20449;-80
2023/06/12 12:28:51;;;;;;;7.10;4.63;;;36.00;34.10;;;;;;5074801;28;20561;-81
2023/06/12 12:31:19;;;;;;;16.37;4.83;;;36.00;33.70;;;;;;5070784;28;20484;-81
2023/06/12 12:33:48;;;;;;;7.70;5.13;;;36.00;34.00;;;;;;5074126;28;20465;-81
2023/06/12 12:36:16;;;;;;;7.00;5.00;;;36.10;34.00;;;;;;5065928;28;20507;-81
2023/06/12 12:38:45;;;;;;;5.30;4.77;;;36.20;34.00;;;;;;5075401;28;20430;-81
2023/06/12 12:41:13;;;;;;;10.47;5.50;;;36.20;33.90;;;;;;5077156;28;20499;-82
2023/06/12 12:43:42;;;;;;;6.40;4.80;;;36.30;33.70;;;;;;5078413;28;20465;-81
2023/06/12 12:46:09;;;;;;;4.87;4.57;;;36.30;33.60;;;;;;5074319;28;20469;-82
2023/06/12 12:48:38;;;;;;;9.00;4.37;;;36.40;33.50;;;;;;5078086;28;20473;-82
2023/06/12 12:51:07;;;;;;;4.60;4.27;;;36.40;33.60;;;;;;5076547;28;20485;-83